createdAt,value
2022-11-05T00:02:03.978Z,99706.81
2022-11-05T00:04:50.407Z,99716.75
2022-11-05T00:07:45.982Z,99733.06
2022-11-05T00:10:35.953Z,99733.25
2022-11-05T00:13:21.850Z,99749.19
2022-11-05T00:16:07.998Z,99759.00
2022-11-05T00:18:36.339Z,99770.63
2022-11-05T00:21:03.593Z,99769.13
2022-11-05T00:23:49.843Z,99757.69
2022-11-05T00:26:16.628Z,99761.22
2022-11-05T00:28:49.960Z,99775.63
2022-11-05T00:31:18.195Z,99774.44
2022-11-05T00:33:46.617Z,99790.19
2022-11-05T00:36:14.082Z,99778.94
2022-11-05T00:38:41.502Z,99787.72
2022-11-05T00:41:08.420Z,99759.34
2022-11-05T00:43:54.452Z,99757.88
2022-11-05T00:46:21.306Z,99770.31
2022-11-05T00:49:06.664Z,99779.94
2022-11-05T00:51:36.262Z,99776.91
2022-11-05T00:54:03.666Z,99784.88
2022-11-05T00:56:31.016Z,99774.25
2022-11-05T00:58:58.279Z,99795.38
2022-11-05T01:01:26.434Z,99787.09
2022-11-05T01:03:55.659Z,99786.72
2022-11-05T01:06:23.231Z,99778.94
2022-11-05T01:08:51.416Z,99791.56
2022-11-05T01:11:35.229Z,99790.75
2022-11-05T01:14:14.246Z,99797.22
2022-11-05T01:16:41.165Z,99797.22
2022-11-05T01:19:10.494Z,99808.19
2022-11-05T01:21:38.121Z,99818.13
2022-11-05T01:24:05.812Z,99813.16
2022-11-05T01:26:34.140Z,99806.19
2022-11-05T01:29:00.921Z,99806.19
2022-11-05T01:31:29.850Z,99805.06
2022-11-05T01:33:57.925Z,99804.56
2022-11-05T01:36:25.335Z,99814.19
2022-11-05T01:38:54.567Z,99799.91
2022-11-05T01:41:21.355Z,99797.25
2022-11-05T01:43:57.769Z,99788.00
2022-11-05T01:46:36.231Z,99781.41
2022-11-05T01:49:32.303Z,99789.03
2022-11-05T01:52:04.545Z,99776.09
2022-11-05T01:54:35.827Z,99786.25
2022-11-05T01:57:10.382Z,99799.88
2022-11-05T02:00:05.430Z,99775.81
2022-11-05T02:02:40.164Z,99781.44
2022-11-05T02:05:10.943Z,99784.09
2022-11-05T02:07:38.643Z,99777.81
2022-11-05T02:10:09.278Z,99797.25
2022-11-05T02:12:39.315Z,99813.66
2022-11-05T02:15:06.771Z,99791.41
2022-11-05T02:17:48.949Z,99808.88
2022-11-05T02:20:52.699Z,99810.34
2022-11-05T02:24:11.651Z,99807.00
2022-11-05T02:27:08.450Z,99803.03
2022-11-05T02:30:09.980Z,99808.34
2022-11-05T02:32:46.580Z,99813.00
2022-11-05T02:35:56.896Z,99808.19
2022-11-05T02:38:46.450Z,99814.34
2022-11-05T02:41:26.054Z,99783.13
2022-11-05T02:44:00.258Z,99788.16
2022-11-05T02:46:39.260Z,99792.16
2022-11-05T02:49:32.107Z,99789.00
2022-11-05T02:52:05.203Z,99778.22
2022-11-05T02:54:47.374Z,99770.06
2022-11-05T02:57:15.464Z,99764.94
2022-11-05T02:59:42.959Z,99775.56
2022-11-05T03:02:14.582Z,99776.06
2022-11-05T03:04:41.590Z,99783.84
2022-11-05T03:07:17.484Z,99794.28
2022-11-05T03:10:02.213Z,99801.25
2022-11-05T03:12:52.578Z,99796.25
2022-11-05T03:15:35.410Z,99818.50
2022-11-05T03:18:29.074Z,99815.16
2022-11-05T03:21:12.517Z,99816.81
2022-11-05T03:23:46.395Z,99807.19
2022-11-05T03:26:32.051Z,99814.69
2022-11-05T03:29:10.672Z,99822.66
2022-11-05T03:31:41.402Z,99833.09
2022-11-05T03:34:12.704Z,99852.00
2022-11-05T03:36:51.430Z,99863.13
2022-11-05T03:39:28.010Z,99878.22
2022-11-05T03:42:01.931Z,99878.22
2022-11-05T03:44:35.497Z,99870.25
2022-11-05T03:47:10.121Z,99862.94
2022-11-05T03:49:50.404Z,99847.53
2022-11-05T03:52:20.588Z,99857.63
2022-11-05T03:54:48.283Z,99841.19
2022-11-05T03:57:30.688Z,99837.53
2022-11-05T03:59:59.895Z,99825.94
2022-11-05T04:02:28.059Z,99802.03
2022-11-05T04:04:57.993Z,99780.63
2022-11-05T04:07:44.318Z,99765.19
2022-11-05T04:10:34.023Z,99744.94
2022-11-05T04:13:22.504Z,99760.06
2022-11-05T04:16:08.156Z,99763.53
2022-11-05T04:18:36.571Z,99758.72
2022-11-05T04:21:24.304Z,99761.50
2022-11-05T04:24:11.112Z,99755.03
2022-11-05T04:26:44.893Z,99753.53
2022-11-05T04:29:30.669Z,99778.47
2022-11-05T04:31:58.490Z,99788.25
2022-11-05T04:34:25.827Z,99789.25
2022-11-05T04:36:53.452Z,99784.94
2022-11-05T04:39:21.237Z,99775.81
2022-11-05T04:41:50.363Z,99777.78
2022-11-05T04:44:21.169Z,99787.59
2022-11-05T04:46:48.839Z,99787.25
2022-11-05T04:49:19.719Z,99802.19
2022-11-05T04:51:47.385Z,99819.44
2022-11-05T04:54:14.646Z,99805.34
2022-11-05T04:56:41.312Z,99802.84
2022-11-05T04:59:09.410Z,99798.38
2022-11-05T05:01:36.820Z,99810.63
2022-11-05T05:04:03.895Z,99793.09
2022-11-05T05:06:33.609Z,99800.19
2022-11-05T05:09:04.308Z,99809.19
2022-11-05T05:11:32.195Z,99816.81
2022-11-05T05:14:03.390Z,99803.03
2022-11-05T05:16:31.863Z,99827.09
2022-11-05T05:19:00.043Z,99837.38
2022-11-05T05:21:39.813Z,99810.00
2022-11-05T05:24:13.067Z,99827.75
2022-11-05T05:26:46.300Z,99847.50
2022-11-05T05:29:18.982Z,99875.84
2022-11-05T05:31:47.208Z,99878.34
2022-11-05T05:34:15.467Z,99886.78
2022-11-05T05:36:47.852Z,99883.50
2022-11-05T05:39:18.728Z,99885.97
2022-11-05T05:41:45.331Z,99891.94
2022-11-05T05:44:12.259Z,99886.78
2022-11-05T05:46:41.410Z,99888.28
2022-11-05T05:49:17.377Z,99880.66
2022-11-05T05:51:46.133Z,99873.66
2022-11-05T05:54:14.202Z,99890.91
2022-11-05T05:56:44.409Z,99890.56
2022-11-05T05:59:15.488Z,99881.44
2022-11-05T06:01:47.625Z,99889.41
2022-11-05T06:04:16.478Z,99893.53
2022-11-05T06:06:47.084Z,99901.16
2022-11-05T06:09:16.810Z,99906.31
2022-11-05T06:11:47.285Z,99914.91
2022-11-05T06:14:14.782Z,99914.78
2022-11-05T06:16:42.464Z,99936.66
2022-11-05T06:19:10.059Z,99940.47
2022-11-05T06:21:45.399Z,99951.91
2022-11-05T06:24:12.850Z,99947.63
2022-11-05T06:26:42.884Z,99936.13
2022-11-05T06:29:10.911Z,99939.28
2022-11-05T06:31:37.506Z,99949.09
2022-11-05T06:34:04.879Z,99975.81
2022-11-05T06:36:33.399Z,99983.47
2022-11-05T06:39:02.838Z,99964.88
2022-11-05T06:41:29.712Z,99961.88
2022-11-05T06:44:00.641Z,99980.16
2022-11-05T06:46:30.854Z,99976.13
2022-11-05T06:48:57.424Z,99972.16
2022-11-05T06:51:25.251Z,99974.47
2022-11-05T06:53:55.334Z,99954.44
2022-11-05T06:56:22.129Z,99977.13
2022-11-05T06:59:15.266Z,99978.63
2022-11-05T07:02:06.459Z,99993.56
2022-11-05T07:04:42.397Z,99977.50
2022-11-05T07:07:17.633Z,99952.22
2022-11-05T07:09:46.032Z,99983.78
2022-11-05T07:12:12.798Z,100002.38
2022-11-05T07:14:40.687Z,100002.88
2022-11-05T07:17:11.344Z,99994.41
2022-11-05T07:20:00.887Z,99983.78
2022-11-05T07:22:28.528Z,100005.03
2022-11-05T07:25:03.557Z,100011.47
2022-11-05T07:27:31.298Z,100024.59
2022-11-05T07:30:01.191Z,100027.41
2022-11-05T07:32:28.836Z,100023.25
2022-11-05T07:34:59.440Z,100021.63
2022-11-05T07:37:27.190Z,100031.22
2022-11-05T07:39:54.422Z,100031.22
2022-11-05T07:42:22.615Z,100037.06
2022-11-05T07:44:49.449Z,100028.25
2022-11-05T07:47:16.439Z,100017.28
2022-11-05T07:49:43.665Z,100006.63
2022-11-05T07:52:10.998Z,100004.44
2022-11-05T07:54:38.243Z,100005.47
2022-11-05T07:57:05.252Z,100009.44
2022-11-05T07:59:35.543Z,100016.88
2022-11-05T08:02:06.123Z,100001.25
2022-11-05T08:04:38.531Z,100009.53
2022-11-05T08:07:05.477Z,100022.50
2022-11-05T08:09:33.212Z,100013.31
2022-11-05T08:12:10.546Z,100019.97
2022-11-05T08:14:38.396Z,100023.66
2022-11-05T08:17:05.743Z,100020.34
2022-11-05T08:19:33.168Z,100012.84
2022-11-05T08:22:00.339Z,99994.59
2022-11-05T08:24:27.554Z,100005.72
2022-11-05T08:26:55.226Z,100000.06
2022-11-05T08:29:22.914Z,100010.84
2022-11-05T08:31:53.331Z,99997.31
2022-11-05T08:34:20.244Z,99998.50
2022-11-05T08:36:47.988Z,100004.25
2022-11-05T08:39:21.263Z,99980.50
2022-11-05T08:41:49.118Z,99992.09
2022-11-05T08:44:16.248Z,99985.94
2022-11-05T08:46:42.874Z,99968.63
2022-11-05T08:49:09.626Z,99976.13
2022-11-05T08:51:37.052Z,99975.00
2022-11-05T08:54:05.619Z,99978.59
2022-11-05T08:56:32.682Z,99978.41
2022-11-05T08:59:01.368Z,99972.28
2022-11-05T09:01:28.933Z,99972.75
2022-11-05T09:04:00.786Z,99968.09
2022-11-05T09:06:31.454Z,99955.78
2022-11-05T09:08:58.337Z,99972.59
2022-11-05T09:11:49.592Z,99981.09
2022-11-05T09:14:16.353Z,99992.72
2022-11-05T09:16:43.820Z,99973.81
2022-11-05T09:19:18.238Z,99998.72
2022-11-05T09:21:46.557Z,100012.38
2022-11-05T09:24:30.967Z,100000.78
2022-11-05T09:26:57.844Z,100023.53
2022-11-05T09:29:25.488Z,100028.84
2022-11-05T09:31:58.209Z,100032.97
2022-11-05T09:34:28.401Z,100047.31
2022-11-05T09:36:57.620Z,100049.84
2022-11-05T09:39:24.708Z,100049.00
2022-11-05T09:42:05.401Z,100039.84
2022-11-05T09:44:43.708Z,100055.44
2022-11-05T09:47:22.790Z,100057.28
2022-11-05T09:49:53.902Z,100067.28
2022-11-05T09:52:22.896Z,100077.56
2022-11-05T09:54:52.452Z,100077.53
2022-11-05T09:57:26.085Z,100077.72
2022-11-05T09:59:57.955Z,100067.38
2022-11-05T10:02:34.042Z,100079.16
2022-11-05T10:05:09.991Z,100076.00
2022-11-05T10:08:05.864Z,100078.31
2022-11-05T10:10:57.015Z,100082.91
2022-11-05T10:13:35.029Z,100077.09
2022-11-05T10:16:12.504Z,100076.72
2022-11-05T10:18:47.463Z,100061.41
2022-11-05T10:21:37.578Z,100063.91
2022-11-05T10:24:19.792Z,100056.63
2022-11-05T10:26:56.066Z,100064.59
2022-11-05T10:29:33.301Z,100069.09
2022-11-05T10:32:07.407Z,100069.47
2022-11-05T10:34:38.749Z,100074.25
2022-11-05T10:37:06.626Z,100057.44
2022-11-05T10:39:34.793Z,100065.09
2022-11-05T10:42:11.786Z,100059.78
2022-11-05T10:45:14.520Z,100056.94
2022-11-05T10:47:50.265Z,100060.91
2022-11-05T10:50:23.570Z,100055.41
2022-11-05T10:52:59.799Z,100070.50
2022-11-05T10:55:37.445Z,100057.88
2022-11-05T10:58:20.419Z,100051.13
2022-11-05T11:00:54.373Z,100077.56
2022-11-05T11:03:42.221Z,100073.25
2022-11-05T11:06:32.794Z,100075.56
2022-11-05T11:09:07.290Z,100079.22
2022-11-05T11:11:42.626Z,100078.41
2022-11-05T11:14:12.913Z,100077.38
2022-11-05T11:16:43.391Z,100064.72
2022-11-05T11:19:22.475Z,100060.41
2022-11-05T11:22:09.642Z,100081.16
2022-11-05T11:24:42.497Z,100075.19
2022-11-05T11:27:17.756Z,100065.53
2022-11-05T11:29:56.843Z,100070.06
2022-11-05T11:32:39.489Z,100070.38
2022-11-05T11:35:18.963Z,100065.69
2022-11-05T11:37:48.851Z,100076.47
2022-11-05T11:40:17.728Z,100084.44
2022-11-05T11:42:56.919Z,100064.63
2022-11-05T11:45:47.162Z,100083.25
2022-11-05T11:48:19.321Z,100081.97
2022-11-05T11:50:50.196Z,100064.81
2022-11-05T11:53:20.417Z,100088.22
2022-11-05T11:56:06.157Z,100097.88
2022-11-05T11:58:44.530Z,100089.34
2022-11-05T12:01:51.797Z,100080.38
2022-11-05T12:04:41.177Z,100087.81
2022-11-05T12:07:27.127Z,100102.13
2022-11-05T12:10:01.861Z,100111.78
2022-11-05T12:13:01.825Z,100116.75
2022-11-05T12:15:53.476Z,100115.03
2022-11-05T12:18:42.363Z,100126.03
2022-11-05T12:21:13.501Z,100124.69
2022-11-05T12:23:54.819Z,100134.94
2022-11-05T12:26:40.919Z,100150.41
2022-11-05T12:29:36.436Z,100149.38
2022-11-05T12:32:28.789Z,100152.59
2022-11-05T12:34:56.344Z,100158.44
2022-11-05T12:37:41.414Z,100170.44
2022-11-05T12:40:30.196Z,100161.59
2022-11-05T12:43:32.809Z,100157.59
2022-11-05T12:46:26.764Z,100158.63
2022-11-05T12:49:15.831Z,100159.31
2022-11-05T12:51:53.136Z,100162.81
2022-11-05T12:54:26.716Z,100166.25
2022-11-05T12:57:01.417Z,100161.97
2022-11-05T12:59:46.982Z,100171.44
2022-11-05T13:02:23.685Z,100184.63
2022-11-05T13:05:04.747Z,100179.78
2022-11-05T13:07:37.686Z,100185.94
2022-11-05T13:10:36.869Z,100185.53
2022-11-05T13:13:32.675Z,100189.31
2022-11-05T13:16:07.493Z,100183.38
2022-11-05T13:18:53.998Z,100187.69
2022-11-05T13:21:29.539Z,100187.34
2022-11-05T13:24:27.377Z,100186.84
2022-11-05T13:27:08.325Z,100184.00
2022-11-05T13:29:54.684Z,100179.66
2022-11-05T13:32:24.583Z,100177.63
2022-11-05T13:34:55.982Z,100171.03
2022-11-05T13:37:56.174Z,100171.84
2022-11-05T13:40:42.096Z,100157.72
2022-11-05T13:43:36.446Z,100167.41
2022-11-05T13:46:32.029Z,100171.19
2022-11-05T13:49:16.990Z,100168.25
2022-11-05T13:51:52.354Z,100168.25
2022-11-05T13:54:38.341Z,100178.03
2022-11-05T13:57:14.446Z,100174.91
2022-11-05T14:00:32.688Z,100186.38
2022-11-05T14:03:15.471Z,100182.25
2022-11-05T14:05:43.323Z,100189.41
2022-11-05T14:08:24.426Z,100200.06
2022-11-05T14:11:00.449Z,100202.72
2022-11-05T14:13:38.420Z,100203.53
2022-11-05T14:16:06.005Z,100210.22
2022-11-05T14:19:06.448Z,100216.56
2022-11-05T14:21:52.267Z,100221.88
2022-11-05T14:24:19.588Z,100223.06
2022-11-05T14:27:06.706Z,100215.78
2022-11-05T14:29:42.615Z,100213.59
2022-11-05T14:32:21.505Z,100231.91
2022-11-05T14:35:17.908Z,100228.59
2022-11-05T14:37:59.551Z,100240.22
2022-11-05T14:40:44.549Z,100226.75
2022-11-05T14:43:15.022Z,100227.72
2022-11-05T14:45:52.875Z,100237.03
2022-11-05T14:48:26.684Z,100224.91
2022-11-05T14:50:53.591Z,100229.06
2022-11-05T14:53:33.058Z,100231.91
2022-11-05T14:56:16.242Z,100231.44
2022-11-05T14:58:44.602Z,100226.94
2022-11-05T15:01:14.306Z,100233.59
2022-11-05T15:03:47.179Z,100217.28
2022-11-05T15:06:22.285Z,100214.16
2022-11-05T15:08:53.548Z,100210.81
2022-11-05T15:11:22.215Z,100205.47
2022-11-05T15:13:55.665Z,100201.50
2022-11-05T15:16:31.360Z,100201.72
2022-11-05T15:18:58.860Z,100190.06
2022-11-05T15:21:28.548Z,100187.59
2022-11-05T15:23:58.022Z,100184.06
2022-11-05T15:26:43.799Z,100187.94
2022-11-05T15:29:18.874Z,100185.44
2022-11-05T15:31:50.715Z,100162.78
2022-11-05T15:34:31.285Z,100195.25
2022-11-05T15:37:20.553Z,100177.78
2022-11-05T15:39:50.598Z,100170.16
2022-11-05T15:42:23.695Z,100182.13
2022-11-05T15:44:58.243Z,100189.94
2022-11-05T15:47:31.138Z,100185.47
2022-11-05T15:50:01.620Z,100162.69
2022-11-05T15:52:40.455Z,100184.16
2022-11-05T15:55:20.567Z,100189.78
2022-11-05T15:57:51.608Z,100196.59
2022-11-05T16:00:25.204Z,100201.09
2022-11-05T16:03:00.759Z,100185.31
2022-11-05T16:05:32.083Z,100198.28
2022-11-05T16:08:00.776Z,100197.47
2022-11-05T16:10:34.127Z,100213.06
2022-11-05T16:13:28.732Z,100227.38
2022-11-05T16:15:58.239Z,100216.72
2022-11-05T16:18:32.838Z,100212.41
2022-11-05T16:21:06.181Z,100205.25
2022-11-05T16:24:01.367Z,100214.22
2022-11-05T16:29:31.477Z,100241.84
2022-11-05T16:32:01.877Z,100230.19
2022-11-05T16:34:32.312Z,100237.69
2022-11-05T16:36:59.851Z,100238.00
2022-11-05T16:39:28.098Z,100252.16
2022-11-05T16:41:55.475Z,100253.63
2022-11-05T16:44:23.247Z,100259.13
2022-11-05T16:46:52.724Z,100265.28
2022-11-05T16:49:19.785Z,100258.94
2022-11-05T16:51:46.779Z,100273.44
2022-11-05T16:54:13.772Z,100276.75
2022-11-05T16:56:42.716Z,100296.19
2022-11-05T16:59:18.259Z,100304.00
2022-11-05T17:01:46.283Z,100304.16
2022-11-05T17:04:14.873Z,100308.34
2022-11-05T17:06:43.829Z,100326.31
2022-11-05T17:09:14.016Z,100321.00
2022-11-05T17:11:40.603Z,100318.97
2022-11-05T17:14:12.420Z,100334.94
2022-11-05T17:16:41.405Z,100336.78
2022-11-05T17:19:18.158Z,100335.94
2022-11-05T17:21:46.570Z,100346.56
2022-11-05T17:24:13.450Z,100344.94
2022-11-05T17:26:41.223Z,100348.91
2022-11-05T17:29:08.374Z,100354.72
2022-11-05T17:31:39.101Z,100358.06
2022-11-05T17:34:06.379Z,100352.22
2022-11-05T17:36:34.601Z,100353.25
2022-11-05T17:39:02.103Z,100360.03
2022-11-05T17:41:32.367Z,100353.91
2022-11-05T17:43:59.383Z,100359.72
2022-11-05T17:46:26.606Z,100360.22
2022-11-05T17:48:54.380Z,100361.06
2022-11-05T17:51:23.809Z,100350.59
2022-11-05T17:53:53.436Z,100365.22
2022-11-05T17:56:32.508Z,100359.41
2022-11-05T17:59:06.007Z,100344.25
2022-11-05T18:01:42.670Z,100361.88
2022-11-05T18:04:10.789Z,100359.41
2022-11-05T18:06:40.540Z,100366.22
2022-11-05T18:09:08.996Z,100350.09
2022-11-05T18:11:37.120Z,100374.84
2022-11-05T18:14:04.630Z,100373.38
2022-11-05T18:16:33.079Z,100366.56
2022-11-05T18:19:00.194Z,100366.88
2022-11-05T18:21:27.117Z,100373.19
2022-11-05T18:23:54.131Z,100374.69
2022-11-05T18:26:21.398Z,100379.16
2022-11-05T18:28:48.370Z,100381.81
2022-11-05T18:31:20.859Z,100385.81
2022-11-05T18:33:48.983Z,100387.50
2022-11-05T18:36:30.164Z,100384.81
2022-11-05T18:39:05.136Z,100381.50
2022-11-05T18:41:35.273Z,100379.66
2022-11-05T18:44:03.828Z,100375.34
2022-11-05T18:49:19.730Z,100390.81
2022-11-05T18:51:46.786Z,100393.78
2022-11-05T18:54:13.792Z,100391.81
2022-11-05T18:56:45.458Z,100394.47
2022-11-05T18:59:36.011Z,100397.13
2022-11-05T19:02:03.556Z,100413.72
2022-11-05T19:04:30.753Z,100404.75
2022-11-05T19:07:04.173Z,100408.09
2022-11-05T19:09:32.170Z,100412.56
2022-11-05T19:11:58.831Z,100427.72
2022-11-05T19:14:25.582Z,100421.22
2022-11-05T19:16:55.051Z,100433.69
2022-11-05T19:19:23.238Z,100432.88
2022-11-05T19:21:53.519Z,100422.72
2022-11-05T19:24:20.618Z,100418.06
2022-11-05T19:26:48.837Z,100425.06
2022-11-05T19:29:15.470Z,100411.59
2022-11-05T19:31:43.355Z,100421.22
2022-11-05T19:34:10.076Z,100420.06
2022-11-05T19:36:38.055Z,100415.75
2022-11-05T19:39:09.149Z,100419.22
2022-11-05T19:41:36.663Z,100403.09
2022-11-05T19:44:04.332Z,100426.03
2022-11-05T19:46:32.233Z,100414.06
2022-11-05T19:49:02.628Z,100413.06
2022-11-05T19:51:31.849Z,100416.56
2022-11-05T19:54:03.788Z,100395.78
2022-11-05T19:56:34.036Z,100416.06
2022-11-05T19:59:03.089Z,100436.31
2022-11-05T20:01:31.564Z,100436.31
2022-11-05T20:04:06.243Z,100436.81
2022-11-05T20:06:38.694Z,100455.28
2022-11-05T20:09:21.530Z,100457.28
2022-11-05T20:11:56.677Z,100439.13
2022-11-05T20:14:25.202Z,100444.44
2022-11-05T20:16:55.745Z,100447.59
2022-11-05T20:19:22.964Z,100441.47
2022-11-05T20:21:50.560Z,100454.06
2022-11-05T20:24:24.905Z,100462.19
2022-11-05T20:26:56.833Z,100447.41
2022-11-05T20:29:30.528Z,100472.19
2022-11-05T20:32:03.556Z,100470.31
2022-11-05T20:34:32.221Z,100468.63
2022-11-05T20:37:00.285Z,100470.47
2022-11-05T20:39:27.633Z,100475.59
2022-11-05T20:41:56.769Z,100484.72
2022-11-05T20:44:25.069Z,100480.75
2022-11-05T20:46:52.672Z,100489.19
2022-11-05T20:49:25.122Z,100483.88
2022-11-05T20:51:53.417Z,100490.03
2022-11-05T20:54:22.894Z,100499.84
2022-11-05T20:56:50.125Z,100495.50
2022-11-05T20:59:16.799Z,100495.66
2022-11-05T21:01:44.474Z,100490.63
2022-11-05T21:04:13.176Z,100484.34
2022-11-05T21:06:40.671Z,100491.63
2022-11-05T21:09:08.293Z,100485.31
2022-11-05T21:11:59.785Z,100494.84
2022-11-05T21:14:27.261Z,100487.69
2022-11-05T21:16:58.904Z,100506.28
2022-11-05T21:19:29.128Z,100507.41
2022-11-05T21:21:55.975Z,100503.09
2022-11-05T21:24:22.843Z,100501.44
2022-11-05T21:26:51.347Z,100505.91
2022-11-05T21:29:21.153Z,100487.28
2022-11-05T21:31:48.884Z,100510.22
2022-11-05T21:34:17.608Z,100504.75
2022-11-05T21:36:49.279Z,100509.25
2022-11-05T21:39:17.381Z,100500.59
2022-11-05T21:41:44.771Z,100498.84
2022-11-05T21:44:11.951Z,100508.13
2022-11-05T21:46:40.256Z,100507.25
2022-11-05T21:49:09.623Z,100519.59
2022-11-05T21:51:56.670Z,100517.44
2022-11-05T21:54:44.681Z,100511.28
2022-11-05T21:57:36.663Z,100514.63
2022-11-05T22:00:06.639Z,100509.91
2022-11-05T22:02:34.068Z,100516.44
2022-11-05T22:05:03.153Z,100516.97
2022-11-05T22:07:35.497Z,100509.97
2022-11-05T22:10:05.878Z,100501.69
2022-11-05T22:12:33.223Z,100492.88
2022-11-05T22:15:00.566Z,100518.31
2022-11-05T22:17:28.046Z,100525.59
2022-11-05T22:19:55.704Z,100520.13
2022-11-05T22:22:23.010Z,100519.63
2022-11-05T22:24:50.393Z,100522.13
2022-11-05T22:27:21.425Z,100512.31
2022-11-05T22:29:49.275Z,100524.94
2022-11-05T22:32:18.280Z,100517.63
2022-11-05T22:34:52.122Z,100518.63
2022-11-05T22:37:24.105Z,100519.94
2022-11-05T22:39:52.310Z,100503.69
2022-11-05T22:42:19.710Z,100516.16
2022-11-05T22:44:46.574Z,100516.44
2022-11-05T22:47:14.292Z,100521.31
2022-11-05T22:49:41.581Z,100516.44
2022-11-05T22:52:08.528Z,100529.38
2022-11-05T22:54:39.197Z,100512.31
2022-11-05T22:57:07.541Z,100522.59
2022-11-05T22:59:35.168Z,100520.94
2022-11-05T23:02:08.261Z,100528.59
2022-11-05T23:04:37.842Z,100524.28
2022-11-05T23:07:27.711Z,100525.03
2022-11-05T23:10:13.772Z,100543.34
2022-11-05T23:12:43.569Z,100541.94
2022-11-05T23:15:31.263Z,100550.53
2022-11-05T23:18:19.872Z,100543.22
2022-11-05T23:21:20.556Z,100543.63
2022-11-05T23:24:04.744Z,100546.97
2022-11-05T23:26:52.792Z,100537.59
2022-11-05T23:29:25.325Z,100542.72
2022-11-05T23:32:11.872Z,100547.88
2022-11-05T23:34:39.206Z,100542.91
2022-11-05T23:37:25.270Z,100544.03
2022-11-05T23:39:52.628Z,100539.91
2022-11-05T23:42:38.459Z,100537.56
2022-11-05T23:45:25.089Z,100538.88
2022-11-05T23:48:10.922Z,100541.88
2022-11-05T23:50:40.342Z,100542.25
2022-11-05T23:53:09.532Z,100528.75
2022-11-05T23:55:37.670Z,100541.25
2022-11-05T23:58:08.510Z,100551.34
